sensor_id;sensor_type;location;lat;lon;timestamp;P1;durP1;ratioP1;P2;durP2;ratioP2
42098;SDS011;27758;55.900;8.516;2022-10-30T00:00:39;44.08;;;24.85;;
42098;SDS011;27758;55.900;8.516;2022-10-30T00:03:05;42.33;;;23.92;;
42098;SDS011;27758;55.900;8.516;2022-10-30T00:05:33;43.38;;;24.13;;
42098;SDS011;27758;55.900;8.516;2022-10-30T00:07:59;45.17;;;23.85;;
42098;SDS011;27758;55.900;8.516;2022-10-30T00:10:25;46.70;;;25.30;;
42098;SDS011;27758;55.900;8.516;2022-10-30T00:12:51;44.95;;;24.52;;
42098;SDS011;27758;55.900;8.516;2022-10-30T00:15:16;39.53;;;22.50;;
42098;SDS011;27758;55.900;8.516;2022-10-30T00:17:42;40.67;;;23.73;;
42098;SDS011;27758;55.900;8.516;2022-10-30T00:20:08;36.25;;;21.45;;
42098;SDS011;27758;55.900;8.516;2022-10-30T00:22:34;43.08;;;23.35;;
42098;SDS011;27758;55.900;8.516;2022-10-30T00:25:01;39.63;;;22.15;;
42098;SDS011;27758;55.900;8.516;2022-10-30T00:27:28;38.03;;;22.60;;
42098;SDS011;27758;55.900;8.516;2022-10-30T00:29:54;41.53;;;24.20;;
42098;SDS011;27758;55.900;8.516;2022-10-30T00:32:19;37.90;;;21.48;;
42098;SDS011;27758;55.900;8.516;2022-10-30T00:34:45;43.50;;;22.40;;
42098;SDS011;27758;55.900;8.516;2022-10-30T00:37:11;43.42;;;23.42;;
42098;SDS011;27758;55.900;8.516;2022-10-30T00:39:36;43.53;;;22.08;;
42098;SDS011;27758;55.900;8.516;2022-10-30T00:42:02;34.72;;;20.75;;
42098;SDS011;27758;55.900;8.516;2022-10-30T00:47:01;39.17;;;21.27;;
42098;SDS011;27758;55.900;8.516;2022-10-30T00:49:32;40.92;;;21.27;;
42098;SDS011;27758;55.900;8.516;2022-10-30T00:52:02;39.97;;;21.48;;
42098;SDS011;27758;55.900;8.516;2022-10-30T00:54:31;39.05;;;21.85;;
42098;SDS011;27758;55.900;8.516;2022-10-30T00:56:59;37.25;;;20.98;;
42098;SDS011;27758;55.900;8.516;2022-10-30T00:59:28;43.28;;;21.88;;
42098;SDS011;27758;55.900;8.516;2022-10-30T01:01:57;38.25;;;20.17;;
42098;SDS011;27758;55.900;8.516;2022-10-30T01:04:25;38.42;;;19.67;;
42098;SDS011;27758;55.900;8.516;2022-10-30T01:06:51;31.90;;;18.88;;
42098;SDS011;27758;55.900;8.516;2022-10-30T01:09:18;33.75;;;18.70;;
42098;SDS011;27758;55.900;8.516;2022-10-30T01:11:44;32.22;;;18.80;;
42098;SDS011;27758;55.900;8.516;2022-10-30T01:14:10;31.17;;;17.80;;
42098;SDS011;27758;55.900;8.516;2022-10-30T01:27:29;27.38;;;15.63;;
42098;SDS011;27758;55.900;8.516;2022-10-30T01:36:25;26.63;;;15.00;;
42098;SDS011;27758;55.900;8.516;2022-10-30T01:38:57;25.42;;;14.13;;
42098;SDS011;27758;55.900;8.516;2022-10-30T01:41:26;27.13;;;15.13;;
42098;SDS011;27758;55.900;8.516;2022-10-30T01:43:54;27.63;;;14.00;;
42098;SDS011;27758;55.900;8.516;2022-10-30T01:46:29;22.77;;;13.98;;
42098;SDS011;27758;55.900;8.516;2022-10-30T01:52:21;28.55;;;15.15;;
42098;SDS011;27758;55.900;8.516;2022-10-30T02:00:54;28.33;;;15.90;;
42098;SDS011;27758;55.900;8.516;2022-10-30T02:03:23;29.45;;;15.63;;
42098;SDS011;27758;55.900;8.516;2022-10-30T02:05:51;31.20;;;15.25;;
42098;SDS011;27758;55.900;8.516;2022-10-30T02:08:18;31.35;;;16.60;;
42098;SDS011;27758;55.900;8.516;2022-10-30T02:10:45;26.25;;;16.00;;
42098;SDS011;27758;55.900;8.516;2022-10-30T02:13:12;32.28;;;16.20;;
42098;SDS011;27758;55.900;8.516;2022-10-30T02:15:39;29.75;;;15.65;;
42098;SDS011;27758;55.900;8.516;2022-10-30T02:18:06;29.23;;;16.33;;
42098;SDS011;27758;55.900;8.516;2022-10-30T02:20:32;29.60;;;15.38;;
42098;SDS011;27758;55.900;8.516;2022-10-30T02:22:58;28.20;;;16.17;;
42098;SDS011;27758;55.900;8.516;2022-10-30T02:25:24;27.85;;;15.48;;
42098;SDS011;27758;55.900;8.516;2022-10-30T02:27:49;28.40;;;15.93;;
42098;SDS011;27758;55.900;8.516;2022-10-30T02:30:15;29.48;;;16.50;;
42098;SDS011;27758;55.900;8.516;2022-10-30T02:32:41;30.15;;;16.75;;
42098;SDS011;27758;55.900;8.516;2022-10-30T02:35:07;28.02;;;15.30;;
42098;SDS011;27758;55.900;8.516;2022-10-30T02:37:33;32.53;;;16.40;;
42098;SDS011;27758;55.900;8.516;2022-10-30T02:40:03;30.45;;;17.00;;
42098;SDS011;27758;55.900;8.516;2022-10-30T02:42:30;30.02;;;17.25;;
42098;SDS011;27758;55.900;8.516;2022-10-30T02:44:55;32.78;;;16.92;;
42098;SDS011;27758;55.900;8.516;2022-10-30T02:47:21;29.55;;;17.17;;
42098;SDS011;27758;55.900;8.516;2022-10-30T02:49:47;34.88;;;15.75;;
42098;SDS011;27758;55.900;8.516;2022-10-30T02:52:13;32.55;;;17.05;;
42098;SDS011;27758;55.900;8.516;2022-10-30T02:54:38;33.47;;;16.95;;
42098;SDS011;27758;55.900;8.516;2022-10-30T02:57:04;30.42;;;17.25;;
42098;SDS011;27758;55.900;8.516;2022-10-30T02:59:30;27.35;;;15.52;;
42098;SDS011;27758;55.900;8.516;2022-10-30T03:01:56;32.38;;;18.08;;
42098;SDS011;27758;55.900;8.516;2022-10-30T03:04:21;34.63;;;16.95;;
42098;SDS011;27758;55.900;8.516;2022-10-30T03:06:47;38.20;;;17.88;;
42098;SDS011;27758;55.900;8.516;2022-10-30T03:09:13;32.08;;;17.67;;
42098;SDS011;27758;55.900;8.516;2022-10-30T03:11:39;36.22;;;17.73;;
42098;SDS011;27758;55.900;8.516;2022-10-30T03:14:04;31.48;;;17.67;;
42098;SDS011;27758;55.900;8.516;2022-10-30T03:16:30;37.03;;;19.13;;
42098;SDS011;27758;55.900;8.516;2022-10-30T03:18:57;35.53;;;19.25;;
42098;SDS011;27758;55.900;8.516;2022-10-30T03:21:24;38.38;;;18.70;;
42098;SDS011;27758;55.900;8.516;2022-10-30T03:23:52;33.13;;;18.05;;
42098;SDS011;27758;55.900;8.516;2022-10-30T03:26:18;32.35;;;18.77;;
42098;SDS011;27758;55.900;8.516;2022-10-30T03:28:44;37.20;;;19.45;;
42098;SDS011;27758;55.900;8.516;2022-10-30T03:31:11;33.65;;;18.98;;
42098;SDS011;27758;55.900;8.516;2022-10-30T03:33:39;36.78;;;19.27;;
42098;SDS011;27758;55.900;8.516;2022-10-30T03:36:05;40.65;;;18.15;;
42098;SDS011;27758;55.900;8.516;2022-10-30T03:38:33;33.72;;;18.05;;
42098;SDS011;27758;55.900;8.516;2022-10-30T03:40:59;36.92;;;19.70;;
42098;SDS011;27758;55.900;8.516;2022-10-30T03:43:25;36.00;;;18.52;;
42098;SDS011;27758;55.900;8.516;2022-10-30T03:45:52;36.42;;;19.58;;
42098;SDS011;27758;55.900;8.516;2022-10-30T03:48:21;35.85;;;18.58;;
42098;SDS011;27758;55.900;8.516;2022-10-30T03:50:50;40.80;;;18.88;;
42098;SDS011;27758;55.900;8.516;2022-10-30T03:53:17;37.53;;;18.17;;
42098;SDS011;27758;55.900;8.516;2022-10-30T03:55:43;37.45;;;19.40;;
42098;SDS011;27758;55.900;8.516;2022-10-30T03:58:09;37.90;;;19.48;;
42098;SDS011;27758;55.900;8.516;2022-10-30T04:00:35;40.55;;;19.42;;
42098;SDS011;27758;55.900;8.516;2022-10-30T04:03:01;35.72;;;19.48;;
42098;SDS011;27758;55.900;8.516;2022-10-30T04:08:00;41.45;;;20.35;;
42098;SDS011;27758;55.900;8.516;2022-10-30T04:10:27;38.88;;;20.17;;
42098;SDS011;27758;55.900;8.516;2022-10-30T04:12:58;33.75;;;17.90;;
42098;SDS011;27758;55.900;8.516;2022-10-30T04:15:25;43.08;;;19.35;;
42098;SDS011;27758;55.900;8.516;2022-10-30T04:17:51;35.15;;;19.02;;
42098;SDS011;27758;55.900;8.516;2022-10-30T04:20:18;42.05;;;20.08;;
42098;SDS011;27758;55.900;8.516;2022-10-30T04:22:44;32.90;;;19.15;;
42098;SDS011;27758;55.900;8.516;2022-10-30T04:25:10;41.13;;;19.70;;
42098;SDS011;27758;55.900;8.516;2022-10-30T04:27:40;39.88;;;19.83;;
42098;SDS011;27758;55.900;8.516;2022-10-30T04:30:08;34.90;;;19.23;;
42098;SDS011;27758;55.900;8.516;2022-10-30T04:32:35;34.38;;;18.13;;
42098;SDS011;27758;55.900;8.516;2022-10-30T04:35:01;32.88;;;19.25;;
42098;SDS011;27758;55.900;8.516;2022-10-30T04:37:29;36.35;;;18.45;;
42098;SDS011;27758;55.900;8.516;2022-10-30T04:39:54;32.65;;;18.55;;
42098;SDS011;27758;55.900;8.516;2022-10-30T04:42:20;35.03;;;18.77;;
42098;SDS011;27758;55.900;8.516;2022-10-30T04:44:46;38.22;;;20.75;;
42098;SDS011;27758;55.900;8.516;2022-10-30T04:47:12;39.67;;;19.98;;
42098;SDS011;27758;55.900;8.516;2022-10-30T04:49:39;41.65;;;19.92;;
42098;SDS011;27758;55.900;8.516;2022-10-30T04:52:08;42.80;;;21.27;;
42098;SDS011;27758;55.900;8.516;2022-10-30T04:54:33;42.88;;;21.90;;
42098;SDS011;27758;55.900;8.516;2022-10-30T04:56:59;42.72;;;19.92;;
42098;SDS011;27758;55.900;8.516;2022-10-30T04:59:25;45.97;;;21.45;;
42098;SDS011;27758;55.900;8.516;2022-10-30T05:01:51;43.67;;;21.27;;
42098;SDS011;27758;55.900;8.516;2022-10-30T05:04:16;44.90;;;21.60;;
42098;SDS011;27758;55.900;8.516;2022-10-30T05:06:42;39.83;;;21.27;;
42098;SDS011;27758;55.900;8.516;2022-10-30T05:09:08;52.30;;;21.85;;
42098;SDS011;27758;55.900;8.516;2022-10-30T05:11:33;44.05;;;22.05;;
42098;SDS011;27758;55.900;8.516;2022-10-30T05:13:59;43.42;;;21.23;;
42098;SDS011;27758;55.900;8.516;2022-10-30T05:16:25;43.78;;;20.83;;
42098;SDS011;27758;55.900;8.516;2022-10-30T05:18:51;37.80;;;19.52;;
42098;SDS011;27758;55.900;8.516;2022-10-30T05:21:16;42.15;;;22.13;;
42098;SDS011;27758;55.900;8.516;2022-10-30T05:23:42;42.88;;;21.63;;
42098;SDS011;27758;55.900;8.516;2022-10-30T05:26:08;42.90;;;21.65;;
42098;SDS011;27758;55.900;8.516;2022-10-30T05:28:34;40.05;;;21.55;;
42098;SDS011;27758;55.900;8.516;2022-10-30T05:31:00;46.38;;;21.77;;
42098;SDS011;27758;55.900;8.516;2022-10-30T05:33:25;49.40;;;23.73;;
42098;SDS011;27758;55.900;8.516;2022-10-30T05:35:51;46.83;;;22.95;;
42098;SDS011;27758;55.900;8.516;2022-10-30T05:38:17;46.42;;;23.77;;
42098;SDS011;27758;55.900;8.516;2022-10-30T05:40:44;44.47;;;22.52;;
42098;SDS011;27758;55.900;8.516;2022-10-30T05:43:10;44.83;;;24.33;;
42098;SDS011;27758;55.900;8.516;2022-10-30T05:45:36;45.63;;;23.33;;
42098;SDS011;27758;55.900;8.516;2022-10-30T05:48:02;49.03;;;23.60;;
42098;SDS011;27758;55.900;8.516;2022-10-30T05:50:30;48.75;;;23.90;;
42098;SDS011;27758;55.900;8.516;2022-10-30T05:52:57;52.90;;;25.80;;
42098;SDS011;27758;55.900;8.516;2022-10-30T05:55:24;47.53;;;26.00;;
42098;SDS011;27758;55.900;8.516;2022-10-30T05:58:09;47.53;;;24.08;;
42098;SDS011;27758;55.900;8.516;2022-10-30T06:00:35;54.58;;;25.48;;
42098;SDS011;27758;55.900;8.516;2022-10-30T06:03:05;51.95;;;24.50;;
42098;SDS011;27758;55.900;8.516;2022-10-30T06:05:33;54.25;;;25.75;;
42098;SDS011;27758;55.900;8.516;2022-10-30T06:08:00;47.60;;;25.90;;
42098;SDS011;27758;55.900;8.516;2022-10-30T06:10:28;62.50;;;27.15;;
42098;SDS011;27758;55.900;8.516;2022-10-30T06:12:54;60.85;;;29.05;;
42098;SDS011;27758;55.900;8.516;2022-10-30T06:15:21;54.45;;;26.75;;
42098;SDS011;27758;55.900;8.516;2022-10-30T06:17:48;62.17;;;31.05;;
42098;SDS011;27758;55.900;8.516;2022-10-30T06:20:14;70.60;;;31.95;;
42098;SDS011;27758;55.900;8.516;2022-10-30T06:22:40;71.45;;;35.10;;
42098;SDS011;27758;55.900;8.516;2022-10-30T06:25:06;73.38;;;36.58;;
42098;SDS011;27758;55.900;8.516;2022-10-30T06:27:34;78.82;;;36.90;;
42098;SDS011;27758;55.900;8.516;2022-10-30T06:30:00;68.32;;;35.67;;
42098;SDS011;27758;55.900;8.516;2022-10-30T06:32:26;82.80;;;37.25;;
42098;SDS011;27758;55.900;8.516;2022-10-30T06:34:51;69.38;;;36.38;;
42098;SDS011;27758;55.900;8.516;2022-10-30T06:37:17;81.50;;;39.00;;
42098;SDS011;27758;55.900;8.516;2022-10-30T06:39:43;86.80;;;40.15;;
42098;SDS011;27758;55.900;8.516;2022-10-30T06:42:09;93.05;;;42.53;;
42098;SDS011;27758;55.900;8.516;2022-10-30T06:44:34;91.13;;;40.28;;
42098;SDS011;27758;55.900;8.516;2022-10-30T06:47:01;83.53;;;42.80;;
42098;SDS011;27758;55.900;8.516;2022-10-30T06:49:27;89.03;;;43.53;;
42098;SDS011;27758;55.900;8.516;2022-10-30T06:51:53;87.57;;;42.45;;
42098;SDS011;27758;55.900;8.516;2022-10-30T06:54:19;89.57;;;44.28;;
42098;SDS011;27758;55.900;8.516;2022-10-30T06:56:48;87.05;;;42.83;;
42098;SDS011;27758;55.900;8.516;2022-10-30T06:59:15;92.35;;;45.83;;
42098;SDS011;27758;55.900;8.516;2022-10-30T07:01:40;100.10;;;43.92;;
42098;SDS011;27758;55.900;8.516;2022-10-30T07:04:06;87.07;;;43.90;;
42098;SDS011;27758;55.900;8.516;2022-10-30T07:06:32;93.72;;;45.85;;
42098;SDS011;27758;55.900;8.516;2022-10-30T07:08:58;86.72;;;44.55;;
42098;SDS011;27758;55.900;8.516;2022-10-30T07:11:23;98.70;;;46.85;;
42098;SDS011;27758;55.900;8.516;2022-10-30T07:13:49;99.38;;;48.45;;
42098;SDS011;27758;55.900;8.516;2022-10-30T07:16:15;91.53;;;45.53;;
42098;SDS011;27758;55.900;8.516;2022-10-30T07:18:41;83.78;;;43.22;;
42098;SDS011;27758;55.900;8.516;2022-10-30T07:21:06;91.15;;;45.65;;
42098;SDS011;27758;55.900;8.516;2022-10-30T07:23:32;94.40;;;47.65;;
42098;SDS011;27758;55.900;8.516;2022-10-30T07:25:58;92.43;;;44.50;;
42098;SDS011;27758;55.900;8.516;2022-10-30T07:28:24;92.97;;;43.35;;
42098;SDS011;27758;55.900;8.516;2022-10-30T07:30:50;89.47;;;45.75;;
42098;SDS011;27758;55.900;8.516;2022-10-30T07:33:15;95.70;;;46.78;;
42098;SDS011;27758;55.900;8.516;2022-10-30T07:35:41;89.18;;;45.63;;
42098;SDS011;27758;55.900;8.516;2022-10-30T07:38:09;86.40;;;44.20;;
42098;SDS011;27758;55.900;8.516;2022-10-30T07:40:36;91.75;;;46.03;;
42098;SDS011;27758;55.900;8.516;2022-10-30T07:43:02;83.25;;;44.53;;
42098;SDS011;27758;55.900;8.516;2022-10-30T07:45:29;88.80;;;45.22;;
42098;SDS011;27758;55.900;8.516;2022-10-30T07:47:55;93.97;;;45.30;;
42098;SDS011;27758;55.900;8.516;2022-10-30T07:50:21;84.00;;;43.22;;
42098;SDS011;27758;55.900;8.516;2022-10-30T07:52:47;83.65;;;43.67;;
42098;SDS011;27758;55.900;8.516;2022-10-30T07:55:13;85.43;;;44.65;;
42098;SDS011;27758;55.900;8.516;2022-10-30T07:57:40;90.03;;;44.45;;
42098;SDS011;27758;55.900;8.516;2022-10-30T08:00:07;94.05;;;46.20;;
42098;SDS011;27758;55.900;8.516;2022-10-30T08:02:35;88.50;;;44.05;;
42098;SDS011;27758;55.900;8.516;2022-10-30T08:05:01;89.25;;;43.13;;
42098;SDS011;27758;55.900;8.516;2022-10-30T08:07:29;82.20;;;43.22;;
42098;SDS011;27758;55.900;8.516;2022-10-30T08:09:55;84.05;;;43.33;;
42098;SDS011;27758;55.900;8.516;2022-10-30T08:12:21;96.38;;;45.38;;
42098;SDS011;27758;55.900;8.516;2022-10-30T08:14:47;78.18;;;41.95;;
42098;SDS011;27758;55.900;8.516;2022-10-30T08:17:13;84.45;;;44.75;;
42098;SDS011;27758;55.900;8.516;2022-10-30T08:19:39;81.60;;;41.95;;
42098;SDS011;27758;55.900;8.516;2022-10-30T08:22:05;80.43;;;42.47;;
42098;SDS011;27758;55.900;8.516;2022-10-30T08:24:31;82.07;;;41.80;;
42098;SDS011;27758;55.900;8.516;2022-10-30T08:26:57;86.13;;;43.13;;
42098;SDS011;27758;55.900;8.516;2022-10-30T08:29:22;89.65;;;43.83;;
42098;SDS011;27758;55.900;8.516;2022-10-30T08:31:49;80.85;;;41.38;;
42098;SDS011;27758;55.900;8.516;2022-10-30T08:34:15;91.40;;;45.33;;
42098;SDS011;27758;55.900;8.516;2022-10-30T08:36:41;86.68;;;45.88;;
42098;SDS011;27758;55.900;8.516;2022-10-30T08:39:08;85.95;;;44.83;;
42098;SDS011;27758;55.900;8.516;2022-10-30T08:41:34;95.30;;;45.97;;
42098;SDS011;27758;55.900;8.516;2022-10-30T08:44:00;86.65;;;45.55;;
42098;SDS011;27758;55.900;8.516;2022-10-30T08:46:26;99.10;;;46.83;;
42098;SDS011;27758;55.900;8.516;2022-10-30T08:48:51;85.38;;;45.47;;
42098;SDS011;27758;55.900;8.516;2022-10-30T08:51:19;93.63;;;46.63;;
42098;SDS011;27758;55.900;8.516;2022-10-30T08:53:46;97.05;;;46.22;;
42098;SDS011;27758;55.900;8.516;2022-10-30T08:56:14;90.07;;;47.80;;
42098;SDS011;27758;55.900;8.516;2022-10-30T08:58:40;96.28;;;46.60;;
42098;SDS011;27758;55.900;8.516;2022-10-30T09:01:06;93.85;;;47.30;;
42098;SDS011;27758;55.900;8.516;2022-10-30T09:03:31;92.43;;;47.70;;
42098;SDS011;27758;55.900;8.516;2022-10-30T09:05:58;88.68;;;46.03;;
42098;SDS011;27758;55.900;8.516;2022-10-30T09:08:25;91.75;;;46.67;;
42098;SDS011;27758;55.900;8.516;2022-10-30T09:10:55;96.97;;;47.60;;
42098;SDS011;27758;55.900;8.516;2022-10-30T09:13:21;83.10;;;45.08;;
42098;SDS011;27758;55.900;8.516;2022-10-30T09:15:48;82.10;;;44.72;;
42098;SDS011;27758;55.900;8.516;2022-10-30T09:18:13;91.78;;;46.45;;
42098;SDS011;27758;55.900;8.516;2022-10-30T09:20:39;87.80;;;46.53;;
42098;SDS011;27758;55.900;8.516;2022-10-30T09:23:05;87.78;;;44.78;;
42098;SDS011;27758;55.900;8.516;2022-10-30T09:25:31;90.70;;;46.22;;
42098;SDS011;27758;55.900;8.516;2022-10-30T09:27:57;96.35;;;47.63;;
42098;SDS011;27758;55.900;8.516;2022-10-30T09:30:23;87.57;;;47.05;;
42098;SDS011;27758;55.900;8.516;2022-10-30T09:32:58;95.50;;;46.70;;
42098;SDS011;27758;55.900;8.516;2022-10-30T09:35:26;92.45;;;46.28;;
42098;SDS011;27758;55.900;8.516;2022-10-30T09:37:53;92.75;;;47.55;;
42098;SDS011;27758;55.900;8.516;2022-10-30T09:43:08;96.13;;;46.40;;
42098;SDS011;27758;55.900;8.516;2022-10-30T09:48:30;93.88;;;45.58;;
42098;SDS011;27758;55.900;8.516;2022-10-30T09:56:42;96.35;;;46.90;;
42098;SDS011;27758;55.900;8.516;2022-10-30T10:02:10;114.13;;;45.65;;
42098;SDS011;27758;55.900;8.516;2022-10-30T10:05:16;84.25;;;44.03;;
42098;SDS011;27758;55.900;8.516;2022-10-30T10:07:47;93.82;;;42.55;;
42098;SDS011;27758;55.900;8.516;2022-10-30T10:10:19;96.57;;;43.95;;
42098;SDS011;27758;55.900;8.516;2022-10-30T10:12:51;100.38;;;46.08;;
42098;SDS011;27758;55.900;8.516;2022-10-30T10:17:47;98.38;;;43.60;;
42098;SDS011;27758;55.900;8.516;2022-10-30T10:20:19;93.50;;;44.03;;
42098;SDS011;27758;55.900;8.516;2022-10-30T10:22:52;87.35;;;42.47;;
42098;SDS011;27758;55.900;8.516;2022-10-30T10:25:21;91.28;;;44.63;;
42098;SDS011;27758;55.900;8.516;2022-10-30T10:28:05;83.00;;;40.80;;
42098;SDS011;27758;55.900;8.516;2022-10-30T10:33:32;92.28;;;42.55;;
42098;SDS011;27758;55.900;8.516;2022-10-30T10:39:05;85.22;;;41.10;;
42098;SDS011;27758;55.900;8.516;2022-10-30T10:44:13;75.70;;;39.08;;
42098;SDS011;27758;55.900;8.516;2022-10-30T10:49:56;80.07;;;38.63;;
42098;SDS011;27758;55.900;8.516;2022-10-30T10:52:37;81.03;;;39.15;;
42098;SDS011;27758;55.900;8.516;2022-10-30T10:55:20;91.05;;;40.58;;
42098;SDS011;27758;55.900;8.516;2022-10-30T10:57:49;77.00;;;37.67;;
42098;SDS011;27758;55.900;8.516;2022-10-30T11:00:20;81.43;;;37.50;;
42098;SDS011;27758;55.900;8.516;2022-10-30T11:02:50;78.80;;;35.72;;
42098;SDS011;27758;55.900;8.516;2022-10-30T11:05:21;78.93;;;35.58;;
42098;SDS011;27758;55.900;8.516;2022-10-30T11:08:00;68.78;;;33.83;;
42098;SDS011;27758;55.900;8.516;2022-10-30T11:10:37;62.90;;;32.90;;
42098;SDS011;27758;55.900;8.516;2022-10-30T11:13:04;71.13;;;32.30;;
42098;SDS011;27758;55.900;8.516;2022-10-30T11:15:35;67.85;;;32.13;;
42098;SDS011;27758;55.900;8.516;2022-10-30T11:18:04;64.88;;;31.27;;
42098;SDS011;27758;55.900;8.516;2022-10-30T11:20:43;66.72;;;30.52;;
42098;SDS011;27758;55.900;8.516;2022-10-30T11:23:52;55.53;;;30.02;;
42098;SDS011;27758;55.900;8.516;2022-10-30T11:31:39;57.83;;;27.52;;
42098;SDS011;27758;55.900;8.516;2022-10-30T11:36:41;50.58;;;24.98;;
42098;SDS011;27758;55.900;8.516;2022-10-30T11:39:16;54.85;;;26.17;;
42098;SDS011;27758;55.900;8.516;2022-10-30T11:41:45;51.13;;;23.70;;
42098;SDS011;27758;55.900;8.516;2022-10-30T11:44:21;45.70;;;21.50;;
42098;SDS011;27758;55.900;8.516;2022-10-30T11:46:50;51.72;;;22.65;;
42098;SDS011;27758;55.900;8.516;2022-10-30T11:52:25;44.50;;;19.85;;
42098;SDS011;27758;55.900;8.516;2022-10-30T11:54:52;33.35;;;16.70;;
42098;SDS011;27758;55.900;8.516;2022-10-30T11:57:27;45.00;;;17.85;;
42098;SDS011;27758;55.900;8.516;2022-10-30T12:00:01;38.58;;;17.88;;
42098;SDS011;27758;55.900;8.516;2022-10-30T12:02:31;33.75;;;16.45;;
42098;SDS011;27758;55.900;8.516;2022-10-30T12:05:12;36.63;;;15.07;;
42098;SDS011;27758;55.900;8.516;2022-10-30T12:08:13;42.67;;;15.25;;
42098;SDS011;27758;55.900;8.516;2022-10-30T12:13:19;31.15;;;13.35;;
42098;SDS011;27758;55.900;8.516;2022-10-30T12:15:47;35.50;;;14.25;;
42098;SDS011;27758;55.900;8.516;2022-10-30T12:18:24;29.95;;;12.85;;
42098;SDS011;27758;55.900;8.516;2022-10-30T12:20:52;38.78;;;11.95;;
42098;SDS011;27758;55.900;8.516;2022-10-30T12:23:21;28.15;;;10.98;;
42098;SDS011;27758;55.900;8.516;2022-10-30T12:25:53;25.73;;;10.18;;
42098;SDS011;27758;55.900;8.516;2022-10-30T12:28:27;26.27;;;10.98;;
42098;SDS011;27758;55.900;8.516;2022-10-30T12:31:15;23.92;;;9.57;;
42098;SDS011;27758;55.900;8.516;2022-10-30T12:36:32;23.75;;;9.68;;
42098;SDS011;27758;55.900;8.516;2022-10-30T12:39:09;24.38;;;9.15;;
42098;SDS011;27758;55.900;8.516;2022-10-30T12:41:44;24.77;;;9.25;;
42098;SDS011;27758;55.900;8.516;2022-10-30T12:44:28;19.30;;;8.73;;
42098;SDS011;27758;55.900;8.516;2022-10-30T12:47:07;20.85;;;8.63;;
42098;SDS011;27758;55.900;8.516;2022-10-30T12:49:58;25.35;;;8.38;;
42098;SDS011;27758;55.900;8.516;2022-10-30T12:52:45;21.80;;;8.27;;
42098;SDS011;27758;55.900;8.516;2022-10-30T13:00:39;25.75;;;8.80;;
42098;SDS011;27758;55.900;8.516;2022-10-30T13:05:56;20.15;;;8.43;;
42098;SDS011;27758;55.900;8.516;2022-10-30T13:08:38;20.88;;;8.57;;
42098;SDS011;27758;55.900;8.516;2022-10-30T13:14:04;24.27;;;7.47;;
42098;SDS011;27758;55.900;8.516;2022-10-30T13:16:37;18.83;;;8.00;;
42098;SDS011;27758;55.900;8.516;2022-10-30T13:19:04;25.92;;;9.13;;
42098;SDS011;27758;55.900;8.516;2022-10-30T13:21:36;22.52;;;9.10;;
42098;SDS011;27758;55.900;8.516;2022-10-30T13:37:20;25.48;;;9.05;;
42098;SDS011;27758;55.900;8.516;2022-10-30T13:40:13;29.83;;;9.48;;
42098;SDS011;27758;55.900;8.516;2022-10-30T13:45:22;22.92;;;8.45;;
42098;SDS011;27758;55.900;8.516;2022-10-30T13:51:09;23.38;;;8.07;;
42098;SDS011;27758;55.900;8.516;2022-10-30T13:53:58;32.10;;;9.32;;
42098;SDS011;27758;55.900;8.516;2022-10-30T13:56:38;27.52;;;9.18;;
42098;SDS011;27758;55.900;8.516;2022-10-30T14:02:11;21.85;;;8.98;;
42098;SDS011;27758;55.900;8.516;2022-10-30T14:05:29;25.13;;;8.85;;
42098;SDS011;27758;55.900;8.516;2022-10-30T14:08:19;27.73;;;10.03;;
42098;SDS011;27758;55.900;8.516;2022-10-30T14:10:56;30.50;;;10.05;;
42098;SDS011;27758;55.900;8.516;2022-10-30T14:16:39;25.48;;;9.63;;
42098;SDS011;27758;55.900;8.516;2022-10-30T14:19:09;28.08;;;10.35;;
42098;SDS011;27758;55.900;8.516;2022-10-30T14:24:11;26.85;;;10.20;;
42098;SDS011;27758;55.900;8.516;2022-10-30T14:26:50;22.27;;;9.25;;
42098;SDS011;27758;55.900;8.516;2022-10-30T14:32:00;25.10;;;9.68;;
42098;SDS011;27758;55.900;8.516;2022-10-30T14:37:53;31.20;;;10.98;;
42098;SDS011;27758;55.900;8.516;2022-10-30T14:40:31;34.40;;;11.20;;
42098;SDS011;27758;55.900;8.516;2022-10-30T14:43:16;33.33;;;11.10;;
42098;SDS011;27758;55.900;8.516;2022-10-30T14:46:03;27.65;;;10.85;;
42098;SDS011;27758;55.900;8.516;2022-10-30T14:51:39;30.65;;;11.48;;
42098;SDS011;27758;55.900;8.516;2022-10-30T14:54:11;35.92;;;11.90;;
42098;SDS011;27758;55.900;8.516;2022-10-30T14:56:56;30.17;;;12.52;;
42098;SDS011;27758;55.900;8.516;2022-10-30T14:59:23;34.30;;;13.13;;
42098;SDS011;27758;55.900;8.516;2022-10-30T15:04:41;25.80;;;11.30;;
42098;SDS011;27758;55.900;8.516;2022-10-30T15:09:50;36.70;;;13.02;;
42098;SDS011;27758;55.900;8.516;2022-10-30T15:12:48;36.42;;;12.35;;
42098;SDS011;27758;55.900;8.516;2022-10-30T15:15:34;28.40;;;12.77;;
42098;SDS011;27758;55.900;8.516;2022-10-30T15:18:02;29.73;;;13.43;;
42098;SDS011;27758;55.900;8.516;2022-10-30T15:20:33;33.22;;;13.23;;
42098;SDS011;27758;55.900;8.516;2022-10-30T15:23:07;29.17;;;12.43;;
42098;SDS011;27758;55.900;8.516;2022-10-30T15:25:52;32.45;;;12.38;;
42098;SDS011;27758;55.900;8.516;2022-10-30T15:28:21;28.13;;;13.05;;
42098;SDS011;27758;55.900;8.516;2022-10-30T15:30:59;31.58;;;13.70;;
42098;SDS011;27758;55.900;8.516;2022-10-30T15:33:45;31.35;;;14.13;;
42098;SDS011;27758;55.900;8.516;2022-10-30T15:36:18;35.53;;;14.88;;
42098;SDS011;27758;55.900;8.516;2022-10-30T15:41:49;36.55;;;14.60;;
42098;SDS011;27758;55.900;8.516;2022-10-30T15:44:32;49.20;;;17.13;;
42098;SDS011;27758;55.900;8.516;2022-10-30T15:47:00;41.13;;;16.48;;
42098;SDS011;27758;55.900;8.516;2022-10-30T15:52:05;38.92;;;18.13;;
42098;SDS011;27758;55.900;8.516;2022-10-30T15:54:40;47.22;;;19.42;;
42098;SDS011;27758;55.900;8.516;2022-10-30T16:03:03;42.97;;;18.60;;
42098;SDS011;27758;55.900;8.516;2022-10-30T16:05:40;35.88;;;18.65;;
42098;SDS011;27758;55.900;8.516;2022-10-30T16:08:11;43.72;;;19.45;;
42098;SDS011;27758;55.900;8.516;2022-10-30T16:10:48;45.60;;;19.88;;
42098;SDS011;27758;55.900;8.516;2022-10-30T16:13:21;46.35;;;21.17;;
42098;SDS011;27758;55.900;8.516;2022-10-30T16:15:52;48.17;;;20.77;;
42098;SDS011;27758;55.900;8.516;2022-10-30T16:18:18;47.70;;;19.23;;
42098;SDS011;27758;55.900;8.516;2022-10-30T16:21:16;67.90;;;25.90;;
42098;SDS011;27758;55.900;8.516;2022-10-30T16:23:51;45.30;;;19.88;;
42098;SDS011;27758;55.900;8.516;2022-10-30T16:26:29;39.97;;;18.35;;
42098;SDS011;27758;55.900;8.516;2022-10-30T16:29:01;44.50;;;20.05;;
42098;SDS011;27758;55.900;8.516;2022-10-30T16:31:37;37.17;;;18.02;;
42098;SDS011;27758;55.900;8.516;2022-10-30T16:34:07;36.63;;;17.27;;
42098;SDS011;27758;55.900;8.516;2022-10-30T16:36:38;47.13;;;20.17;;
42098;SDS011;27758;55.900;8.516;2022-10-30T16:39:05;38.17;;;16.40;;
42098;SDS011;27758;55.900;8.516;2022-10-30T16:41:31;37.63;;;16.98;;
42098;SDS011;27758;55.900;8.516;2022-10-30T16:44:08;40.13;;;16.98;;
42098;SDS011;27758;55.900;8.516;2022-10-30T16:46:37;30.50;;;15.88;;
42098;SDS011;27758;55.900;8.516;2022-10-30T16:49:05;43.05;;;17.17;;
42098;SDS011;27758;55.900;8.516;2022-10-30T16:51:38;40.90;;;17.55;;
42098;SDS011;27758;55.900;8.516;2022-10-30T16:54:04;40.35;;;19.98;;
42098;SDS011;27758;55.900;8.516;2022-10-30T16:56:32;38.22;;;19.05;;
42098;SDS011;27758;55.900;8.516;2022-10-30T16:59:05;47.88;;;18.15;;